sensor_id;sensor_type;location;lat;lon;timestamp;P1;durP1;ratioP1;P2;durP2;ratioP2
78840;SDS011;68379;47.190;27.558;2024-02-23T00:00:11;10.30;;;6.10;;
78840;SDS011;68379;47.190;27.558;2024-02-23T00:03:06;10.80;;;6.00;;
78840;SDS011;68379;47.190;27.558;2024-02-23T00:05:38;10.70;;;6.00;;
78840;SDS011;68379;47.190;27.558;2024-02-23T00:08:10;11.70;;;6.00;;
78840;SDS011;68379;47.190;27.558;2024-02-23T00:10:42;11.90;;;6.00;;
78840;SDS011;68379;47.190;27.558;2024-02-23T00:13:14;10.40;;;6.10;;
78840;SDS011;68379;47.190;27.558;2024-02-23T00:15:46;11.00;;;6.30;;
78840;SDS011;68379;47.190;27.558;2024-02-23T00:18:17;12.60;;;5.90;;
78840;SDS011;68379;47.190;27.558;2024-02-23T00:20:49;11.30;;;7.00;;
78840;SDS011;68379;47.190;27.558;2024-02-23T00:23:21;10.40;;;5.80;;
78840;SDS011;68379;47.190;27.558;2024-02-23T00:25:53;11.40;;;7.00;;
78840;SDS011;68379;47.190;27.558;2024-02-23T00:28:24;11.00;;;6.40;;
78840;SDS011;68379;47.190;27.558;2024-02-23T00:30:55;13.20;;;6.70;;
78840;SDS011;68379;47.190;27.558;2024-02-23T00:33:27;13.80;;;7.10;;
78840;SDS011;68379;47.190;27.558;2024-02-23T00:35:59;11.80;;;6.00;;
78840;SDS011;68379;47.190;27.558;2024-02-23T00:38:30;10.10;;;6.60;;
78840;SDS011;68379;47.190;27.558;2024-02-23T00:41:02;12.10;;;6.80;;
78840;SDS011;68379;47.190;27.558;2024-02-23T00:43:38;15.00;;;6.50;;
78840;SDS011;68379;47.190;27.558;2024-02-23T00:46:10;13.10;;;6.90;;
78840;SDS011;68379;47.190;27.558;2024-02-23T00:48:42;14.70;;;6.50;;
78840;SDS011;68379;47.190;27.558;2024-02-23T00:51:14;12.30;;;6.50;;
78840;SDS011;68379;47.190;27.558;2024-02-23T00:53:45;12.60;;;6.70;;
78840;SDS011;68379;47.190;27.558;2024-02-23T00:56:17;14.70;;;6.90;;
78840;SDS011;68379;47.190;27.558;2024-02-23T00:58:49;13.90;;;6.50;;
78840;SDS011;68379;47.190;27.558;2024-02-23T01:01:20;12.50;;;6.00;;
78840;SDS011;68379;47.190;27.558;2024-02-23T01:06:24;15.80;;;6.80;;
78840;SDS011;68379;47.190;27.558;2024-02-23T01:08:56;13.20;;;7.00;;
78840;SDS011;68379;47.190;27.558;2024-02-23T01:11:28;13.80;;;6.70;;
78840;SDS011;68379;47.190;27.558;2024-02-23T01:13:59;13.60;;;6.70;;
78840;SDS011;68379;47.190;27.558;2024-02-23T01:16:31;13.00;;;6.00;;
78840;SDS011;68379;47.190;27.558;2024-02-23T01:19:02;13.20;;;7.00;;
78840;SDS011;68379;47.190;27.558;2024-02-23T01:21:34;12.60;;;6.40;;
78840;SDS011;68379;47.190;27.558;2024-02-23T01:24:05;11.00;;;6.50;;
78840;SDS011;68379;47.190;27.558;2024-02-23T01:26:37;13.70;;;6.70;;
78840;SDS011;68379;47.190;27.558;2024-02-23T01:29:09;13.10;;;6.70;;
78840;SDS011;68379;47.190;27.558;2024-02-23T01:31:41;14.90;;;7.10;;
78840;SDS011;68379;47.190;27.558;2024-02-23T01:34:12;13.60;;;6.70;;
78840;SDS011;68379;47.190;27.558;2024-02-23T01:36:44;17.10;;;7.50;;
78840;SDS011;68379;47.190;27.558;2024-02-23T01:39:15;11.30;;;6.40;;
78840;SDS011;68379;47.190;27.558;2024-02-23T01:41:47;12.40;;;7.00;;
78840;SDS011;68379;47.190;27.558;2024-02-23T01:44:19;13.70;;;6.40;;
78840;SDS011;68379;47.190;27.558;2024-02-23T01:46:50;12.20;;;6.40;;
78840;SDS011;68379;47.190;27.558;2024-02-23T01:49:22;11.80;;;7.00;;
78840;SDS011;68379;47.190;27.558;2024-02-23T01:51:57;14.50;;;6.80;;
78840;SDS011;68379;47.190;27.558;2024-02-23T01:54:29;13.70;;;6.00;;
78840;SDS011;68379;47.190;27.558;2024-02-23T01:57:02;14.90;;;7.20;;
78840;SDS011;68379;47.190;27.558;2024-02-23T01:59:34;13.50;;;6.90;;
78840;SDS011;68379;47.190;27.558;2024-02-23T02:02:06;10.30;;;6.30;;
78840;SDS011;68379;47.190;27.558;2024-02-23T02:04:38;13.70;;;7.20;;
78840;SDS011;68379;47.190;27.558;2024-02-23T02:07:09;11.40;;;6.60;;
78840;SDS011;68379;47.190;27.558;2024-02-23T02:09:41;14.90;;;7.20;;
78840;SDS011;68379;47.190;27.558;2024-02-23T02:12:12;11.50;;;6.50;;
78840;SDS011;68379;47.190;27.558;2024-02-23T02:14:44;11.70;;;6.50;;
78840;SDS011;68379;47.190;27.558;2024-02-23T02:17:15;12.40;;;6.30;;
78840;SDS011;68379;47.190;27.558;2024-02-23T02:19:48;12.50;;;6.20;;
78840;SDS011;68379;47.190;27.558;2024-02-23T02:22:19;12.40;;;6.90;;
78840;SDS011;68379;47.190;27.558;2024-02-23T02:24:51;12.00;;;6.30;;
78840;SDS011;68379;47.190;27.558;2024-02-23T02:27:23;12.10;;;6.20;;
78840;SDS011;68379;47.190;27.558;2024-02-23T02:29:54;13.10;;;7.00;;
78840;SDS011;68379;47.190;27.558;2024-02-23T02:32:27;14.80;;;8.00;;
78840;SDS011;68379;47.190;27.558;2024-02-23T02:34:58;12.10;;;6.40;;
78840;SDS011;68379;47.190;27.558;2024-02-23T02:37:30;15.30;;;7.40;;
78840;SDS011;68379;47.190;27.558;2024-02-23T02:40:02;14.00;;;7.10;;
78840;SDS011;68379;47.190;27.558;2024-02-23T02:42:34;14.80;;;7.60;;
78840;SDS011;68379;47.190;27.558;2024-02-23T02:45:06;12.40;;;7.20;;
78840;SDS011;68379;47.190;27.558;2024-02-23T02:47:38;15.80;;;8.00;;
78840;SDS011;68379;47.190;27.558;2024-02-23T02:50:10;13.60;;;7.20;;
78840;SDS011;68379;47.190;27.558;2024-02-23T02:52:42;15.10;;;7.70;;
78840;SDS011;68379;47.190;27.558;2024-02-23T02:55:14;12.50;;;6.90;;
78840;SDS011;68379;47.190;27.558;2024-02-23T02:57:46;15.70;;;7.50;;
78840;SDS011;68379;47.190;27.558;2024-02-23T03:00:18;14.90;;;7.80;;
78840;SDS011;68379;47.190;27.558;2024-02-23T03:02:49;14.40;;;7.60;;
78840;SDS011;68379;47.190;27.558;2024-02-23T03:05:21;14.20;;;7.30;;
78840;SDS011;68379;47.190;27.558;2024-02-23T03:07:53;13.80;;;6.90;;
78840;SDS011;68379;47.190;27.558;2024-02-23T03:10:25;15.00;;;7.10;;
78840;SDS011;68379;47.190;27.558;2024-02-23T03:12:56;18.30;;;9.20;;
78840;SDS011;68379;47.190;27.558;2024-02-23T03:15:28;16.20;;;7.70;;
78840;SDS011;68379;47.190;27.558;2024-02-23T03:17:59;16.70;;;8.40;;
78840;SDS011;68379;47.190;27.558;2024-02-23T03:20:31;15.70;;;8.50;;
78840;SDS011;68379;47.190;27.558;2024-02-23T03:23:02;17.80;;;8.40;;
78840;SDS011;68379;47.190;27.558;2024-02-23T03:25:34;16.60;;;7.60;;
78840;SDS011;68379;47.190;27.558;2024-02-23T03:28:05;15.40;;;7.90;;
78840;SDS011;68379;47.190;27.558;2024-02-23T03:30:37;16.60;;;7.70;;
78840;SDS011;68379;47.190;27.558;2024-02-23T03:33:08;16.30;;;7.70;;
78840;SDS011;68379;47.190;27.558;2024-02-23T03:35:40;15.60;;;7.40;;
78840;SDS011;68379;47.190;27.558;2024-02-23T03:38:11;19.30;;;7.10;;
78840;SDS011;68379;47.190;27.558;2024-02-23T03:40:43;16.40;;;7.80;;
78840;SDS011;68379;47.190;27.558;2024-02-23T03:43:15;14.20;;;8.40;;
78840;SDS011;68379;47.190;27.558;2024-02-23T03:45:47;14.40;;;7.60;;
78840;SDS011;68379;47.190;27.558;2024-02-23T03:48:18;18.60;;;8.70;;
78840;SDS011;68379;47.190;27.558;2024-02-23T03:50:49;18.10;;;8.20;;
78840;SDS011;68379;47.190;27.558;2024-02-23T03:53:22;16.40;;;8.10;;
78840;SDS011;68379;47.190;27.558;2024-02-23T03:55:53;18.00;;;8.90;;
78840;SDS011;68379;47.190;27.558;2024-02-23T03:58:26;18.20;;;7.90;;
78840;SDS011;68379;47.190;27.558;2024-02-23T04:00:57;18.20;;;9.40;;
78840;SDS011;68379;47.190;27.558;2024-02-23T04:03:29;15.60;;;7.70;;
78840;SDS011;68379;47.190;27.558;2024-02-23T04:06:01;15.30;;;8.30;;
78840;SDS011;68379;47.190;27.558;2024-02-23T04:08:33;16.00;;;8.10;;
78840;SDS011;68379;47.190;27.558;2024-02-23T04:11:05;14.20;;;7.60;;
78840;SDS011;68379;47.190;27.558;2024-02-23T04:13:37;14.50;;;7.90;;
78840;SDS011;68379;47.190;27.558;2024-02-23T04:16:08;19.00;;;8.70;;
78840;SDS011;68379;47.190;27.558;2024-02-23T04:18:39;16.70;;;8.80;;
78840;SDS011;68379;47.190;27.558;2024-02-23T04:21:11;19.70;;;8.80;;
78840;SDS011;68379;47.190;27.558;2024-02-23T04:23:44;19.10;;;8.30;;
78840;SDS011;68379;47.190;27.558;2024-02-23T04:26:16;17.60;;;8.40;;
78840;SDS011;68379;47.190;27.558;2024-02-23T04:28:47;14.00;;;7.90;;
78840;SDS011;68379;47.190;27.558;2024-02-23T04:31:18;18.20;;;8.70;;
78840;SDS011;68379;47.190;27.558;2024-02-23T04:33:50;17.10;;;8.30;;
78840;SDS011;68379;47.190;27.558;2024-02-23T04:36:21;19.20;;;7.80;;
78840;SDS011;68379;47.190;27.558;2024-02-23T04:38:53;16.80;;;8.40;;
78840;SDS011;68379;47.190;27.558;2024-02-23T04:41:24;14.80;;;7.40;;
78840;SDS011;68379;47.190;27.558;2024-02-23T04:43:56;18.20;;;8.90;;
78840;SDS011;68379;47.190;27.558;2024-02-23T04:46:28;15.30;;;8.80;;
78840;SDS011;68379;47.190;27.558;2024-02-23T04:49:03;16.90;;;7.90;;
78840;SDS011;68379;47.190;27.558;2024-02-23T04:51:34;16.80;;;8.20;;
78840;SDS011;68379;47.190;27.558;2024-02-23T04:54:06;14.80;;;7.80;;
78840;SDS011;68379;47.190;27.558;2024-02-23T04:56:38;19.60;;;9.50;;
78840;SDS011;68379;47.190;27.558;2024-02-23T04:59:09;21.50;;;8.20;;
78840;SDS011;68379;47.190;27.558;2024-02-23T05:01:41;17.00;;;8.30;;
78840;SDS011;68379;47.190;27.558;2024-02-23T05:04:12;13.80;;;6.60;;
78840;SDS011;68379;47.190;27.558;2024-02-23T05:06:43;13.00;;;7.40;;
78840;SDS011;68379;47.190;27.558;2024-02-23T05:09:15;14.20;;;7.00;;
78840;SDS011;68379;47.190;27.558;2024-02-23T05:11:48;18.20;;;7.60;;
78840;SDS011;68379;47.190;27.558;2024-02-23T05:14:20;12.90;;;7.20;;
78840;SDS011;68379;47.190;27.558;2024-02-23T05:16:51;18.90;;;7.80;;
78840;SDS011;68379;47.190;27.558;2024-02-23T05:19:23;12.10;;;6.90;;
78840;SDS011;68379;47.190;27.558;2024-02-23T05:21:54;14.20;;;5.70;;
78840;SDS011;68379;47.190;27.558;2024-02-23T05:24:26;13.40;;;6.80;;
78840;SDS011;68379;47.190;27.558;2024-02-23T05:26:57;18.50;;;7.50;;
78840;SDS011;68379;47.190;27.558;2024-02-23T05:29:30;15.90;;;7.30;;
78840;SDS011;68379;47.190;27.558;2024-02-23T05:32:02;15.50;;;7.30;;
78840;SDS011;68379;47.190;27.558;2024-02-23T05:34:34;18.00;;;7.30;;
78840;SDS011;68379;47.190;27.558;2024-02-23T05:37:05;18.50;;;7.80;;
78840;SDS011;68379;47.190;27.558;2024-02-23T05:39:37;16.70;;;7.30;;
78840;SDS011;68379;47.190;27.558;2024-02-23T05:42:08;16.40;;;7.70;;
78840;SDS011;68379;47.190;27.558;2024-02-23T05:44:42;15.30;;;7.10;;
78840;SDS011;68379;47.190;27.558;2024-02-23T05:47:14;15.30;;;7.50;;
78840;SDS011;68379;47.190;27.558;2024-02-23T05:49:46;23.90;;;8.90;;
78840;SDS011;68379;47.190;27.558;2024-02-23T05:52:17;15.80;;;7.60;;
78840;SDS011;68379;47.190;27.558;2024-02-23T05:54:49;16.90;;;7.90;;
78840;SDS011;68379;47.190;27.558;2024-02-23T05:57:24;15.90;;;7.60;;
78840;SDS011;68379;47.190;27.558;2024-02-23T05:59:56;19.30;;;7.70;;
78840;SDS011;68379;47.190;27.558;2024-02-23T06:02:27;20.40;;;8.00;;
78840;SDS011;68379;47.190;27.558;2024-02-23T06:04:59;17.90;;;8.70;;
78840;SDS011;68379;47.190;27.558;2024-02-23T06:07:31;15.10;;;7.80;;
78840;SDS011;68379;47.190;27.558;2024-02-23T06:10:03;14.80;;;7.70;;
78840;SDS011;68379;47.190;27.558;2024-02-23T06:12:36;14.90;;;7.70;;
78840;SDS011;68379;47.190;27.558;2024-02-23T06:15:08;15.50;;;8.50;;
78840;SDS011;68379;47.190;27.558;2024-02-23T06:17:41;15.60;;;7.70;;
78840;SDS011;68379;47.190;27.558;2024-02-23T06:20:13;21.50;;;9.10;;
78840;SDS011;68379;47.190;27.558;2024-02-23T06:22:45;14.40;;;7.70;;
78840;SDS011;68379;47.190;27.558;2024-02-23T06:25:18;16.30;;;9.00;;
78840;SDS011;68379;47.190;27.558;2024-02-23T06:27:50;17.20;;;8.40;;
78840;SDS011;68379;47.190;27.558;2024-02-23T06:30:22;19.90;;;9.00;;
78840;SDS011;68379;47.190;27.558;2024-02-23T06:32:53;15.60;;;8.40;;
78840;SDS011;68379;47.190;27.558;2024-02-23T06:35:25;21.70;;;8.60;;
78840;SDS011;68379;47.190;27.558;2024-02-23T06:37:56;22.40;;;9.40;;
78840;SDS011;68379;47.190;27.558;2024-02-23T06:40:28;21.00;;;8.40;;
78840;SDS011;68379;47.190;27.558;2024-02-23T06:42:59;21.70;;;10.40;;
78840;SDS011;68379;47.190;27.558;2024-02-23T06:45:32;23.20;;;9.80;;
78840;SDS011;68379;47.190;27.558;2024-02-23T06:48:03;16.80;;;8.00;;
78840;SDS011;68379;47.190;27.558;2024-02-23T06:50:36;17.50;;;8.90;;
78840;SDS011;68379;47.190;27.558;2024-02-23T06:53:08;18.50;;;8.90;;
78840;SDS011;68379;47.190;27.558;2024-02-23T06:55:39;17.30;;;9.00;;
78840;SDS011;68379;47.190;27.558;2024-02-23T06:58:11;19.80;;;8.80;;
78840;SDS011;68379;47.190;27.558;2024-02-23T07:00:44;18.90;;;8.30;;
78840;SDS011;68379;47.190;27.558;2024-02-23T07:03:16;18.90;;;8.00;;
78840;SDS011;68379;47.190;27.558;2024-02-23T07:05:48;15.10;;;7.90;;
78840;SDS011;68379;47.190;27.558;2024-02-23T07:08:19;14.80;;;8.00;;
78840;SDS011;68379;47.190;27.558;2024-02-23T07:10:51;15.30;;;8.70;;
78840;SDS011;68379;47.190;27.558;2024-02-23T07:13:22;19.00;;;8.70;;
78840;SDS011;68379;47.190;27.558;2024-02-23T07:15:54;18.70;;;8.90;;
78840;SDS011;68379;47.190;27.558;2024-02-23T07:18:26;16.10;;;8.70;;
78840;SDS011;68379;47.190;27.558;2024-02-23T07:20:57;17.30;;;8.90;;
78840;SDS011;68379;47.190;27.558;2024-02-23T07:23:30;18.00;;;9.40;;
78840;SDS011;68379;47.190;27.558;2024-02-23T07:26:02;15.50;;;8.50;;
78840;SDS011;68379;47.190;27.558;2024-02-23T07:28:33;19.10;;;10.10;;
78840;SDS011;68379;47.190;27.558;2024-02-23T07:31:05;20.40;;;9.30;;
78840;SDS011;68379;47.190;27.558;2024-02-23T07:33:39;18.50;;;9.00;;
78840;SDS011;68379;47.190;27.558;2024-02-23T07:36:15;20.40;;;8.70;;
78840;SDS011;68379;47.190;27.558;2024-02-23T07:38:47;16.50;;;9.00;;
78840;SDS011;68379;47.190;27.558;2024-02-23T07:41:18;19.30;;;9.50;;
78840;SDS011;68379;47.190;27.558;2024-02-23T07:43:50;16.90;;;8.40;;
78840;SDS011;68379;47.190;27.558;2024-02-23T07:46:22;18.70;;;10.40;;
78840;SDS011;68379;47.190;27.558;2024-02-23T07:48:53;17.40;;;9.60;;
78840;SDS011;68379;47.190;27.558;2024-02-23T07:51:25;16.70;;;9.50;;
78840;SDS011;68379;47.190;27.558;2024-02-23T07:53:56;16.90;;;9.10;;
78840;SDS011;68379;47.190;27.558;2024-02-23T07:56:28;16.80;;;8.80;;
78840;SDS011;68379;47.190;27.558;2024-02-23T07:59:00;19.90;;;9.90;;
78840;SDS011;68379;47.190;27.558;2024-02-23T08:01:32;20.00;;;10.20;;
78840;SDS011;68379;47.190;27.558;2024-02-23T08:04:04;21.30;;;10.00;;
78840;SDS011;68379;47.190;27.558;2024-02-23T08:06:35;18.40;;;10.30;;
78840;SDS011;68379;47.190;27.558;2024-02-23T08:09:06;19.60;;;10.60;;
78840;SDS011;68379;47.190;27.558;2024-02-23T08:11:38;18.80;;;9.30;;
78840;SDS011;68379;47.190;27.558;2024-02-23T08:14:10;18.30;;;9.80;;
78840;SDS011;68379;47.190;27.558;2024-02-23T08:16:41;20.90;;;10.70;;
78840;SDS011;68379;47.190;27.558;2024-02-23T08:19:13;16.70;;;9.90;;
78840;SDS011;68379;47.190;27.558;2024-02-23T08:21:45;21.90;;;10.80;;
78840;SDS011;68379;47.190;27.558;2024-02-23T08:24:16;19.10;;;9.80;;
78840;SDS011;68379;47.190;27.558;2024-02-23T08:26:48;21.70;;;10.90;;
78840;SDS011;68379;47.190;27.558;2024-02-23T08:29:19;19.30;;;9.50;;
78840;SDS011;68379;47.190;27.558;2024-02-23T08:31:51;22.10;;;10.70;;
78840;SDS011;68379;47.190;27.558;2024-02-23T08:34:23;19.50;;;10.20;;
78840;SDS011;68379;47.190;27.558;2024-02-23T08:36:55;21.60;;;11.10;;
78840;SDS011;68379;47.190;27.558;2024-02-23T08:39:26;23.10;;;10.80;;
78840;SDS011;68379;47.190;27.558;2024-02-23T08:41:58;17.70;;;9.60;;
78840;SDS011;68379;47.190;27.558;2024-02-23T08:44:30;20.80;;;10.00;;
78840;SDS011;68379;47.190;27.558;2024-02-23T08:47:01;17.80;;;9.30;;
78840;SDS011;68379;47.190;27.558;2024-02-23T08:49:33;16.70;;;9.40;;
78840;SDS011;68379;47.190;27.558;2024-02-23T08:52:06;17.60;;;9.60;;
78840;SDS011;68379;47.190;27.558;2024-02-23T08:54:37;18.20;;;9.70;;
78840;SDS011;68379;47.190;27.558;2024-02-23T08:57:09;16.20;;;9.20;;
78840;SDS011;68379;47.190;27.558;2024-02-23T08:59:40;18.50;;;9.70;;
78840;SDS011;68379;47.190;27.558;2024-02-23T09:02:11;16.70;;;9.10;;
78840;SDS011;68379;47.190;27.558;2024-02-23T09:04:43;14.80;;;9.40;;
78840;SDS011;68379;47.190;27.558;2024-02-23T09:07:15;18.50;;;10.50;;
78840;SDS011;68379;47.190;27.558;2024-02-23T09:09:48;21.70;;;9.90;;
78840;SDS011;68379;47.190;27.558;2024-02-23T09:12:19;16.70;;;9.30;;
78840;SDS011;68379;47.190;27.558;2024-02-23T09:14:51;17.10;;;9.30;;
78840;SDS011;68379;47.190;27.558;2024-02-23T09:17:22;17.90;;;8.70;;
78840;SDS011;68379;47.190;27.558;2024-02-23T09:19:54;17.10;;;9.70;;
78840;SDS011;68379;47.190;27.558;2024-02-23T09:22:25;16.40;;;8.90;;
78840;SDS011;68379;47.190;27.558;2024-02-23T09:24:57;18.10;;;9.10;;
78840;SDS011;68379;47.190;27.558;2024-02-23T09:27:29;15.90;;;8.60;;
78840;SDS011;68379;47.190;27.558;2024-02-23T09:30:00;19.20;;;9.00;;
78840;SDS011;68379;47.190;27.558;2024-02-23T09:32:32;15.20;;;8.10;;
78840;SDS011;68379;47.190;27.558;2024-02-23T09:35:04;15.60;;;8.20;;
78840;SDS011;68379;47.190;27.558;2024-02-23T09:37:36;13.50;;;7.80;;
78840;SDS011;68379;47.190;27.558;2024-02-23T09:40:09;11.60;;;7.30;;
78840;SDS011;68379;47.190;27.558;2024-02-23T09:42:43;13.90;;;7.50;;
78840;SDS011;68379;47.190;27.558;2024-02-23T09:45:19;13.50;;;7.00;;
78840;SDS011;68379;47.190;27.558;2024-02-23T09:47:51;14.00;;;7.40;;
78840;SDS011;68379;47.190;27.558;2024-02-23T09:50:25;14.90;;;7.30;;
78840;SDS011;68379;47.190;27.558;2024-02-23T09:52:59;13.90;;;7.40;;
78840;SDS011;68379;47.190;27.558;2024-02-23T09:55:36;14.50;;;7.40;;
78840;SDS011;68379;47.190;27.558;2024-02-23T09:58:08;14.30;;;8.20;;
78840;SDS011;68379;47.190;27.558;2024-02-23T10:00:42;14.70;;;8.00;;
78840;SDS011;68379;47.190;27.558;2024-02-23T10:03:14;13.00;;;7.30;;
78840;SDS011;68379;47.190;27.558;2024-02-23T10:05:46;13.80;;;7.80;;
78840;SDS011;68379;47.190;27.558;2024-02-23T10:08:18;14.00;;;7.90;;
78840;SDS011;68379;47.190;27.558;2024-02-23T10:10:50;12.10;;;7.40;;
78840;SDS011;68379;47.190;27.558;2024-02-23T10:13:21;15.70;;;8.20;;
78840;SDS011;68379;47.190;27.558;2024-02-23T10:15:54;15.70;;;7.70;;
78840;SDS011;68379;47.190;27.558;2024-02-23T10:18:26;12.60;;;7.00;;
78840;SDS011;68379;47.190;27.558;2024-02-23T10:20:58;13.60;;;7.60;;
78840;SDS011;68379;47.190;27.558;2024-02-23T10:23:30;11.20;;;5.90;;
78840;SDS011;68379;47.190;27.558;2024-02-23T10:26:02;11.40;;;6.10;;
78840;SDS011;68379;47.190;27.558;2024-02-23T10:28:36;9.80;;;5.90;;
78840;SDS011;68379;47.190;27.558;2024-02-23T10:31:08;10.70;;;6.20;;
78840;SDS011;68379;47.190;27.558;2024-02-23T10:33:40;11.60;;;6.90;;
78840;SDS011;68379;47.190;27.558;2024-02-23T10:36:14;16.20;;;7.80;;
78840;SDS011;68379;47.190;27.558;2024-02-23T10:38:47;12.70;;;7.20;;
78840;SDS011;68379;47.190;27.558;2024-02-23T10:41:23;14.20;;;7.40;;
78840;SDS011;68379;47.190;27.558;2024-02-23T10:43:56;13.70;;;7.60;;
78840;SDS011;68379;47.190;27.558;2024-02-23T10:46:29;12.20;;;6.90;;
78840;SDS011;68379;47.190;27.558;2024-02-23T10:49:02;11.90;;;7.30;;
78840;SDS011;68379;47.190;27.558;2024-02-23T10:51:35;13.20;;;7.80;;
78840;SDS011;68379;47.190;27.558;2024-02-23T10:54:09;11.60;;;7.20;;
78840;SDS011;68379;47.190;27.558;2024-02-23T10:56:41;14.50;;;7.50;;
78840;SDS011;68379;47.190;27.558;2024-02-23T10:59:15;13.60;;;7.00;;
78840;SDS011;68379;47.190;27.558;2024-02-23T11:01:50;12.80;;;7.00;;
78840;SDS011;68379;47.190;27.558;2024-02-23T11:04:25;11.60;;;6.50;;
78840;SDS011;68379;47.190;27.558;2024-02-23T11:06:58;13.80;;;7.70;;
78840;SDS011;68379;47.190;27.558;2024-02-23T11:09:35;15.30;;;6.80;;
78840;SDS011;68379;47.190;27.558;2024-02-23T11:12:08;13.90;;;7.10;;
78840;SDS011;68379;47.190;27.558;2024-02-23T11:14:39;15.50;;;8.60;;
78840;SDS011;68379;47.190;27.558;2024-02-23T11:17:19;12.80;;;7.00;;
78840;SDS011;68379;47.190;27.558;2024-02-23T11:19:51;12.00;;;6.80;;
78840;SDS011;68379;47.190;27.558;2024-02-23T11:22:27;11.50;;;7.20;;
78840;SDS011;68379;47.190;27.558;2024-02-23T11:25:04;12.40;;;7.40;;
78840;SDS011;68379;47.190;27.558;2024-02-23T11:27:38;12.80;;;6.80;;
78840;SDS011;68379;47.190;27.558;2024-02-23T11:30:12;13.30;;;7.30;;
78840;SDS011;68379;47.190;27.558;2024-02-23T11:32:48;14.00;;;6.90;;
78840;SDS011;68379;47.190;27.558;2024-02-23T11:35:25;12.40;;;6.80;;
78840;SDS011;68379;47.190;27.558;2024-02-23T11:37:56;13.00;;;8.00;;
78840;SDS011;68379;47.190;27.558;2024-02-23T11:40:30;15.30;;;7.60;;
78840;SDS011;68379;47.190;27.558;2024-02-23T11:43:02;16.50;;;7.60;;
78840;SDS011;68379;47.190;27.558;2024-02-23T11:45:34;12.30;;;7.70;;
78840;SDS011;68379;47.190;27.558;2024-02-23T11:48:07;13.60;;;8.40;;
78840;SDS011;68379;47.190;27.558;2024-02-23T11:53:09;13.20;;;7.30;;
78840;SDS011;68379;47.190;27.558;2024-02-23T11:55:41;14.00;;;7.80;;
78840;SDS011;68379;47.190;27.558;2024-02-23T11:58:13;11.50;;;6.30;;
78840;SDS011;68379;47.190;27.558;2024-02-23T12:00:47;12.60;;;7.30;;
78840;SDS011;68379;47.190;27.558;2024-02-23T12:03:20;11.50;;;6.80;;
78840;SDS011;68379;47.190;27.558;2024-02-23T12:05:53;11.50;;;6.40;;
78840;SDS011;68379;47.190;27.558;2024-02-23T12:08:25;9.00;;;5.80;;
78840;SDS011;68379;47.190;27.558;2024-02-23T12:11:01;12.50;;;6.00;;
78840;SDS011;68379;47.190;27.558;2024-02-23T12:13:33;12.00;;;6.80;;
78840;SDS011;68379;47.190;27.558;2024-02-23T12:16:06;12.00;;;6.10;;
78840;SDS011;68379;47.190;27.558;2024-02-23T12:18:38;10.80;;;6.50;;
78840;SDS011;68379;47.190;27.558;2024-02-23T12:21:10;10.80;;;6.50;;
78840;SDS011;68379;47.190;27.558;2024-02-23T12:23:42;10.30;;;6.50;;
78840;SDS011;68379;47.190;27.558;2024-02-23T12:26:16;15.30;;;6.90;;
78840;SDS011;68379;47.190;27.558;2024-02-23T12:28:49;11.40;;;6.50;;
78840;SDS011;68379;47.190;27.558;2024-02-23T12:31:24;11.40;;;6.20;;
78840;SDS011;68379;47.190;27.558;2024-02-23T12:33:56;11.90;;;6.50;;
78840;SDS011;68379;47.190;27.558;2024-02-23T12:36:28;13.00;;;6.10;;
78840;SDS011;68379;47.190;27.558;2024-02-23T12:39:03;12.90;;;6.60;;
78840;SDS011;68379;47.190;27.558;2024-02-23T12:41:35;11.70;;;5.70;;
78840;SDS011;68379;47.190;27.558;2024-02-23T12:44:06;12.20;;;6.10;;
78840;SDS011;68379;47.190;27.558;2024-02-23T12:46:37;10.40;;;6.00;;
78840;SDS011;68379;47.190;27.558;2024-02-23T12:49:09;12.00;;;7.00;;
78840;SDS011;68379;47.190;27.558;2024-02-23T12:51:41;9.60;;;6.00;;
78840;SDS011;68379;47.190;27.558;2024-02-23T12:54:12;12.10;;;5.50;;
78840;SDS011;68379;47.190;27.558;2024-02-23T12:56:44;11.10;;;5.50;;
78840;SDS011;68379;47.190;27.558;2024-02-23T12:59:16;12.60;;;5.70;;
78840;SDS011;68379;47.190;27.558;2024-02-23T13:01:48;9.10;;;5.40;;
78840;SDS011;68379;47.190;27.558;2024-02-23T13:04:19;10.60;;;5.80;;
78840;SDS011;68379;47.190;27.558;2024-02-23T13:06:51;11.30;;;6.60;;
78840;SDS011;68379;47.190;27.558;2024-02-23T13:09:24;14.30;;;5.90;;
78840;SDS011;68379;47.190;27.558;2024-02-23T13:11:56;10.30;;;6.00;;
78840;SDS011;68379;47.190;27.558;2024-02-23T13:14:27;14.60;;;6.00;;
78840;SDS011;68379;47.190;27.558;2024-02-23T13:16:59;14.50;;;5.90;;
78840;SDS011;68379;47.190;27.558;2024-02-23T13:19:31;10.90;;;5.90;;
78840;SDS011;68379;47.190;27.558;2024-02-23T13:22:03;9.70;;;5.50;;
78840;SDS011;68379;47.190;27.558;2024-02-23T13:24:34;12.20;;;6.00;;
78840;SDS011;68379;47.190;27.558;2024-02-23T13:27:08;13.00;;;6.10;;
78840;SDS011;68379;47.190;27.558;2024-02-23T13:29:40;14.80;;;7.30;;
78840;SDS011;68379;47.190;27.558;2024-02-23T13:32:12;13.20;;;6.90;;
78840;SDS011;68379;47.190;27.558;2024-02-23T13:34:43;13.30;;;6.60;;
78840;SDS011;68379;47.190;27.558;2024-02-23T13:37:15;13.50;;;7.00;;
78840;SDS011;68379;47.190;27.558;2024-02-23T13:39:46;12.60;;;6.20;;
78840;SDS011;68379;47.190;27.558;2024-02-23T13:42:18;10.30;;;6.40;;
78840;SDS011;68379;47.190;27.558;2024-02-23T13:44:50;9.80;;;5.80;;
78840;SDS011;68379;47.190;27.558;2024-02-23T13:47:22;11.10;;;6.20;;
78840;SDS011;68379;47.190;27.558;2024-02-23T13:49:53;10.70;;;6.40;;
78840;SDS011;68379;47.190;27.558;2024-02-23T13:52:25;14.20;;;6.40;;
78840;SDS011;68379;47.190;27.558;2024-02-23T13:54:57;12.20;;;6.40;;
78840;SDS011;68379;47.190;27.558;2024-02-23T13:57:29;12.10;;;6.50;;
78840;SDS011;68379;47.190;27.558;2024-02-23T14:00:00;11.90;;;6.20;;
78840;SDS011;68379;47.190;27.558;2024-02-23T14:02:34;11.60;;;6.40;;
78840;SDS011;68379;47.190;27.558;2024-02-23T14:05:08;10.60;;;4.80;;
78840;SDS011;68379;47.190;27.558;2024-02-23T14:07:40;9.10;;;5.20;;
78840;SDS011;68379;47.190;27.558;2024-02-23T14:10:12;7.50;;;4.90;;
78840;SDS011;68379;47.190;27.558;2024-02-23T14:12:43;9.40;;;5.40;;
78840;SDS011;68379;47.190;27.558;2024-02-23T14:15:15;7.40;;;4.90;;
78840;SDS011;68379;47.190;27.558;2024-02-23T14:17:46;8.40;;;4.60;;
78840;SDS011;68379;47.190;27.558;2024-02-23T14:20:18;7.40;;;4.90;;
78840;SDS011;68379;47.190;27.558;2024-02-23T14:22:49;8.40;;;4.60;;
78840;SDS011;68379;47.190;27.558;2024-02-23T14:25:21;10.30;;;4.90;;
78840;SDS011;68379;47.190;27.558;2024-02-23T14:27:52;10.80;;;5.70;;
78840;SDS011;68379;47.190;27.558;2024-02-23T14:30:24;8.30;;;4.90;;
78840;SDS011;68379;47.190;27.558;2024-02-23T14:32:56;8.80;;;5.50;;
78840;SDS011;68379;47.190;27.558;2024-02-23T14:35:27;10.00;;;5.80;;
78840;SDS011;68379;47.190;27.558;2024-02-23T14:37:59;10.10;;;5.40;;
78840;SDS011;68379;47.190;27.558;2024-02-23T14:40:31;9.80;;;5.10;;
78840;SDS011;68379;47.190;27.558;2024-02-23T14:43:02;9.20;;;5.40;;
78840;SDS011;68379;47.190;27.558;2024-02-23T14:45:34;9.70;;;5.30;;
78840;SDS011;68379;47.190;27.558;2024-02-23T14:48:07;9.00;;;5.50;;
78840;SDS011;68379;47.190;27.558;2024-02-23T14:50:39;10.40;;;5.40;;
78840;SDS011;68379;47.190;27.558;2024-02-23T14:53:10;10.80;;;5.80;;